Time;durP1;ratioP1;P1;durP2;ratioP2;P2;SDS_P1;SDS_P2;PMS_P1;PMS_P2;Temp;Humidity;BMP_temperature;BMP_pressure;BME280_temperature;BME280_humidity;BME280_pressure;Samples;Min_cycle;Max_cycle;Signal;HPM_P1;HPM_P2
2021/07/10 00:00:59;;;;;;;;;;;;;;;15.35;81.97;102148.81;5113126;28;20392;-71
2021/07/10 00:03:25;;;;;;;;;;;;;;;15.35;82.25;102140.13;5113526;28;19923;-71
2021/07/10 00:05:54;;;;;;;;;;;;;;;15.53;80.99;102146.16;5113456;28;19930;-71
2021/07/10 00:08:20;;;;;;;;;;;;;;;15.49;81.38;102153.34;5113549;28;19924;-71
2021/07/10 00:10:47;;;;;;;;;;;;;;;15.31;82.01;102142.06;5113323;28;19924;-71
2021/07/10 00:13:13;;;;;;;;;;;;;;;15.30;81.75;102142.97;5113075;28;19924;-71
2021/07/10 00:15:40;;;;;;;;;;;;;;;15.23;81.81;102144.22;5113407;28;19924;-71
2021/07/10 00:18:07;;;;;;;;;;;;;;;15.32;81.17;102142.91;5113282;28;19924;-71
2021/07/10 00:20:33;;;;;;;;;;;;;;;15.29;81.71;102137.81;5113186;28;20291;-71
2021/07/10 00:23:02;;;;;;;;;;;;;;;15.40;80.89;102146.81;5113202;28;19924;-72
2021/07/10 00:25:29;;;;;;;;;;;;;;;15.34;81.48;102141.91;5113051;28;20442;-71
2021/07/10 00:27:55;;;;;;;;;;;;;;;15.24;81.82;102130.19;5112770;28;19928;-71
2021/07/10 00:30:22;;;;;;;;;;;;;;;15.21;83.10;102130.38;5113306;28;19947;-71
2021/07/10 00:32:49;;;;;;;;;;;;;;;15.19;82.60;102127.81;5113022;28;19931;-71
2021/07/10 00:35:16;;;;;;;;;;;;;;;15.22;81.70;102124.19;5113033;28;19931;-71
2021/07/10 00:37:44;;;;;;;;;;;;;;;15.28;81.19;102126.47;5112802;28;20374;-71
2021/07/10 00:40:13;;;;;;;;;;;;;;;15.14;81.47;102121.13;5112705;28;19928;-71
2021/07/10 00:42:40;;;;;;;;;;;;;;;15.11;82.15;102121.28;5113228;28;19924;-72
2021/07/10 00:45:08;;;;;;;;;;;;;;;15.15;81.90;102134.13;5112993;28;19924;-71
2021/07/10 00:47:35;;;;;;;;;;;;;;;15.11;81.79;102130.00;5113097;28;19924;-71
2021/07/10 00:50:01;;;;;;;;;;;;;;;15.10;81.89;102130.06;5112583;28;19924;-71
2021/07/10 00:52:28;;;;;;;;;;;;;;;15.02;82.38;102128.69;5113078;28;20302;-71
2021/07/10 00:54:55;;;;;;;;;;;;;;;15.03;81.91;102127.78;5112658;28;19931;-71
2021/07/10 00:57:23;;;;;;;;;;;;;;;15.02;82.17;102126.06;5112829;28;19924;-71
2021/07/10 00:59:49;;;;;;;;;;;;;;;15.11;82.20;102126.53;5112778;28;19924;-71
2021/07/10 01:02:16;;;;;;;;;;;;;;;15.19;81.77;102132.22;5112940;28;19923;-71
2021/07/10 01:04:43;;;;;;;;;;;;;;;15.19;81.79;102125.19;5112630;28;19923;-71
2021/07/10 01:07:09;;;;;;;;;;;;;;;15.21;81.73;102122.50;5112759;28;19946;-71
2021/07/10 01:09:36;;;;;;;;;;;;;;;15.25;81.58;102124.00;5112546;28;20285;-71
2021/07/10 01:12:02;;;;;;;;;;;;;;;15.19;81.75;102122.56;5112706;28;19924;-71
2021/07/10 01:14:31;;;;;;;;;;;;;;;15.22;81.35;102122.41;5114442;28;19930;-71
2021/07/10 01:16:57;;;;;;;;;;;;;;;15.06;81.73;102124.16;5116645;28;19924;-71
2021/07/10 01:19:26;;;;;;;;;;;;;;;15.00;81.89;102116.59;5116943;28;19923;-71
2021/07/10 01:21:54;;;;;;;;;;;;;;;15.12;81.16;102118.56;5116228;28;19959;-71
2021/07/10 01:24:21;;;;;;;;;;;;;;;15.05;81.64;102118.97;5116492;28;19930;-71
2021/07/10 01:26:47;;;;;;;;;;;;;;;15.06;81.99;102121.53;5116529;28;20374;-71
2021/07/10 01:29:14;;;;;;;;;;;;;;;15.09;81.44;102120.53;5116369;28;20181;-71
2021/07/10 01:31:40;;;;;;;;;;;;;;;15.13;81.83;102127.28;5116741;28;20299;-71
2021/07/10 01:34:07;;;;;;;;;;;;;;;15.18;81.22;102122.63;5116371;28;19924;-71
2021/07/10 01:36:35;;;;;;;;;;;;;;;15.19;81.17;102124.34;5116324;28;19931;-71
2021/07/10 01:39:05;;;;;;;;;;;;;;;15.23;81.17;102131.09;5116245;28;19927;-71
2021/07/10 01:41:40;;;;;;;;;;;;;;;15.14;81.82;102134.22;5116179;28;20420;-71
2021/07/10 01:44:07;;;;;;;;;;;;;;;15.14;82.19;102132.44;5115974;28;19923;-71
2021/07/10 01:46:33;;;;;;;;;;;;;;;15.32;81.04;102142.91;5116413;28;19924;-71
2021/07/10 01:49:00;;;;;;;;;;;;;;;15.35;80.79;102145.34;5115733;28;19930;-71
2021/07/10 01:51:26;;;;;;;;;;;;;;;15.77;84.89;102151.88;5115942;28;19931;-71
2021/07/10 01:53:53;;;;;;;;;;;;;;;15.64;85.26;102151.66;5116048;28;19931;-71
2021/07/10 01:56:21;;;;;;;;;;;;;;;15.91;86.01;102145.88;5115815;28;19924;-71
2021/07/10 01:58:47;;;;;;;;;;;;;;;15.82;85.90;102144.59;5115883;28;20000;-71
2021/07/10 02:01:14;;;;;;;;;;;;;;;15.60;83.03;102144.91;5115655;28;19947;-71
2021/07/10 02:03:41;;;;;;;;;;;;;;;15.62;82.70;102145.66;5115632;28;19924;-71
2021/07/10 02:06:10;;;;;;;;;;;;;;;15.63;83.74;102142.94;5115520;28;20381;-71
2021/07/10 02:08:37;;;;;;;;;;;;;;;15.60;83.87;102145.75;5116001;28;19969;-71
2021/07/10 02:11:03;;;;;;;;;;;;;;;15.56;84.41;102132.88;5115265;28;19924;-71
2021/07/10 02:13:31;;;;;;;;;;;;;;;15.63;84.11;102136.84;5115452;28;19924;-71
2021/07/10 02:15:58;;;;;;;;;;;;;;;15.76;83.01;102137.06;5115245;28;20386;-71
2021/07/10 02:18:25;;;;;;;;;;;;;;;15.82;82.71;102129.69;5115741;28;19931;-72
2021/07/10 02:20:51;;;;;;;;;;;;;;;15.95;82.11;102137.72;5115502;28;19931;-71
2021/07/10 02:23:18;;;;;;;;;;;;;;;16.06;81.73;102129.28;5115171;28;19923;-71
2021/07/10 02:25:44;;;;;;;;;;;;;;;16.09;82.32;102126.47;5115502;28;19931;-71
2021/07/10 02:28:11;;;;;;;;;;;;;;;16.11;83.21;102129.84;5115653;28;19928;-71
2021/07/10 02:30:39;;;;;;;;;;;;;;;16.15;84.62;102130.53;5115196;28;19924;-71
2021/07/10 02:33:07;;;;;;;;;;;;;;;16.24;83.90;102133.47;5114832;28;19924;-71
2021/07/10 02:35:34;;;;;;;;;;;;;;;16.28;82.81;102129.72;5115458;28;19931;-71
2021/07/10 02:38:01;;;;;;;;;;;;;;;16.42;82.08;102123.69;5115163;28;19923;-71
2021/07/10 02:40:28;;;;;;;;;;;;;;;16.52;82.15;102126.63;5114989;28;19930;-71
2021/07/10 02:42:55;;;;;;;;;;;;;;;16.66;81.06;102117.94;5115078;28;19979;-71
2021/07/10 02:45:22;;;;;;;;;;;;;;;16.86;81.12;102120.25;5115195;28;19927;-71
2021/07/10 02:47:50;;;;;;;;;;;;;;;17.09;81.12;102110.13;5115536;28;19924;-71
2021/07/10 02:50:18;;;;;;;;;;;;;;;17.13;81.15;102112.47;5114841;28;19923;-71
2021/07/10 02:52:45;;;;;;;;;;;;;;;17.12;81.98;102107.31;5114747;28;19931;-71
2021/07/10 02:55:12;;;;;;;;;;;;;;;17.13;82.60;102117.72;5114522;28;19924;-71
2021/07/10 02:57:39;;;;;;;;;;;;;;;17.26;81.92;102112.56;5115025;28;19923;-71
2021/07/10 03:00:08;;;;;;;;;;;;;;;17.31;82.08;102112.28;5114357;28;19924;-71
2021/07/10 03:02:34;;;;;;;;;;;;;;;17.34;81.24;102106.81;5114779;28;19930;-71
2021/07/10 03:05:02;;;;;;;;;;;;;;;17.38;80.97;102106.53;5114634;28;19924;-72
2021/07/10 03:07:29;;;;;;;;;;;;;;;17.51;79.76;102103.16;5114543;28;19931;-71
2021/07/10 03:09:55;;;;;;;;;;;;;;;17.62;79.95;102106.81;5114183;28;20362;-71
2021/07/10 03:12:22;;;;;;;;;;;;;;;17.69;78.47;102104.59;5114687;28;19923;-71
2021/07/10 03:14:49;;;;;;;;;;;;;;;17.73;79.09;102106.13;5114406;28;20401;-71
2021/07/10 03:17:16;;;;;;;;;;;;;;;17.72;78.77;102103.56;5114328;28;19930;-71
2021/07/10 03:19:42;;;;;;;;;;;;;;;17.60;79.76;102105.22;5114594;28;19943;-71
2021/07/10 03:22:10;;;;;;;;;;;;;;;17.60;78.97;102099.94;5114049;28;19924;-71
2021/07/10 03:24:37;;;;;;;;;;;;;;;17.79;77.82;102099.59;5114305;28;19923;-71
2021/07/10 03:27:04;;;;;;;;;;;;;;;17.80;78.38;102096.94;5114247;28;19931;-71
2021/07/10 03:29:30;;;;;;;;;;;;;;;17.80;78.75;102106.59;5114043;28;19935;-71
2021/07/10 03:31:57;;;;;;;;;;;;;;;17.76;78.25;102107.72;5114088;28;19923;-71
2021/07/10 03:34:23;;;;;;;;;;;;;;;17.87;77.62;102104.41;5113975;28;19931;-71
2021/07/10 03:36:50;;;;;;;;;;;;;;;18.01;77.03;102104.38;5113691;28;20177;-71
2021/07/10 03:39:18;;;;;;;;;;;;;;;18.13;75.65;102107.97;5114174;28;19923;-71
2021/07/10 03:41:45;;;;;;;;;;;;;;;18.30;74.53;102113.00;5114187;28;19935;-71
2021/07/10 03:44:11;;;;;;;;;;;;;;;18.56;72.77;102107.78;5113917;28;20355;-71
2021/07/10 03:46:38;;;;;;;;;;;;;;;18.69;71.06;102109.47;5113960;28;19923;-71
2021/07/10 03:49:04;;;;;;;;;;;;;;;18.80;70.42;102103.47;5113503;28;19924;-71
2021/07/10 03:51:31;;;;;;;;;;;;;;;18.84;71.00;102106.78;5113488;28;20289;-71
2021/07/10 03:53:58;;;;;;;;;;;;;;;18.93;70.87;102101.72;5113719;28;19930;-71
2021/07/10 03:56:26;;;;;;;;;;;;;;;19.03;71.45;102099.25;5113440;28;19924;-71
2021/07/10 03:58:52;;;;;;;;;;;;;;;19.04;69.00;102092.22;5113249;28;20286;-71
2021/07/10 04:01:19;;;;;;;;;;;;;;;18.98;70.23;102098.72;5113633;28;19923;-71
2021/07/10 04:03:45;;;;;;;;;;;;;;;19.13;68.72;102096.84;5113386;28;19931;-71
2021/07/10 04:06:12;;;;;;;;;;;;;;;19.02;69.33;102094.94;5113141;28;19935;-71
2021/07/10 04:08:38;;;;;;;;;;;;;;;18.96;69.20;102091.88;5113635;28;19931;-71
2021/07/10 04:11:10;;;;;;;;;;;;;;;18.82;70.29;102096.31;5113045;28;19939;-71
2021/07/10 04:13:38;;;;;;;;;;;;;;;18.62;72.10;102094.16;5113552;28;19977;-71
2021/07/10 04:16:04;;;;;;;;;;;;;;;18.66;72.03;102093.88;5113358;28;19924;-71
2021/07/10 04:18:32;;;;;;;;;;;;;;;18.65;71.78;102093.94;5113436;28;19934;-71
2021/07/10 04:20:58;;;;;;;;;;;;;;;18.70;71.47;102086.56;5112969;28;20328;-72
2021/07/10 04:23:26;;;;;;;;;;;;;;;18.82;70.03;102088.41;5113468;28;19923;-71
2021/07/10 04:25:53;;;;;;;;;;;;;;;18.93;69.77;102077.13;5113114;28;19923;-71
2021/07/10 04:28:19;;;;;;;;;;;;;;;19.04;69.76;102082.50;5113115;28;20267;-71
2021/07/10 04:30:47;;;;;;;;;;;;;;;19.02;69.85;102078.28;5113340;28;19961;-71
2021/07/10 04:33:14;;;;;;;;;;;;;;;19.05;69.81;102083.34;5112708;28;19930;-71
2021/07/10 04:35:41;;;;;;;;;;;;;;;18.93;72.76;102092.94;5112928;28;20419;-71
2021/07/10 04:38:08;;;;;;;;;;;;;;;19.15;72.17;102090.50;5113036;28;19924;-71
2021/07/10 04:40:35;;;;;;;;;;;;;;;19.54;70.84;102085.97;5112961;28;19924;-71
2021/07/10 04:43:02;;;;;;;;;;;;;;;19.80;68.45;102085.91;5112646;28;19928;-71
2021/07/10 04:45:29;;;;;;;;;;;;;;;19.84;67.94;102082.09;5113128;28;19923;-71
2021/07/10 04:47:57;;;;;;;;;;;;;;;19.85;68.10;102077.66;5112954;28;20378;-71
2021/07/10 04:50:23;;;;;;;;;;;;;;;20.04;66.84;102069.22;5116250;28;19928;-71
2021/07/10 04:52:50;;;;;;;;;;;;;;;20.07;67.09;102067.19;5117146;28;19931;-71
2021/07/10 04:55:18;;;;;;;;;;;;;;;20.27;66.29;102056.91;5116981;28;19946;-71
2021/07/10 04:57:45;;;;;;;;;;;;;;;20.40;66.44;102063.81;5117208;28;19924;-71
2021/07/10 05:00:13;;;;;;;;;;;;;;;20.65;66.96;102064.59;5116525;28;19934;-72
2021/07/10 05:02:39;;;;;;;;;;;;;;;20.90;65.08;102068.00;5117159;28;19931;-71
2021/07/10 05:05:08;;;;;;;;;;;;;;;21.18;65.57;102064.84;5116693;28;20381;-71
2021/07/10 05:07:35;;;;;;;;;;;;;;;21.42;64.39;102066.53;5116840;28;19924;-71
2021/07/10 05:10:01;;;;;;;;;;;;;;;21.44;63.85;102061.97;5116577;28;19934;-71
2021/07/10 05:12:28;;;;;;;;;;;;;;;21.51;63.53;102060.50;5117068;28;19930;-71
2021/07/10 05:14:54;;;;;;;;;;;;;;;21.70;62.89;102055.38;5116464;28;19924;-71
2021/07/10 05:17:21;;;;;;;;;;;;;;;21.80;62.79;102059.94;5117043;28;20026;-71
2021/07/10 05:19:48;;;;;;;;;;;;;;;21.71;63.32;102051.78;5116865;28;19924;-72
2021/07/10 05:22:17;;;;;;;;;;;;;;;21.83;63.20;102054.38;5116269;28;19924;-73
2021/07/10 05:24:44;;;;;;;;;;;;;;;21.82;63.82;102042.94;5116700;28;20403;-73
2021/07/10 05:27:10;;;;;;;;;;;;;;;22.04;60.66;102049.97;5116555;28;19931;-73
2021/07/10 05:29:37;;;;;;;;;;;;;;;22.10;61.28;102038.84;5116403;28;20370;-73
2021/07/10 05:32:04;;;;;;;;;;;;;;;22.17;60.61;102047.97;5116413;28;19923;-71
2021/07/10 05:34:31;;;;;;;;;;;;;;;22.24;60.19;102043.00;5116530;28;19924;-72
2021/07/10 05:36:57;;;;;;;;;;;;;;;22.35;60.87;102040.31;5116100;28;19930;-72
2021/07/10 05:39:25;;;;;;;;;;;;;;;22.38;60.32;102031.25;5116674;28;19925;-72
2021/07/10 05:41:52;;;;;;;;;;;;;;;22.48;59.96;102039.25;5116355;28;19928;-72
2021/07/10 05:44:18;;;;;;;;;;;;;;;22.43;60.56;102037.00;5116452;28;19923;-72
2021/07/10 05:46:45;;;;;;;;;;;;;;;22.41;60.87;102038.94;5116028;28;20411;-72
2021/07/10 05:49:12;;;;;;;;;;;;;;;22.36;61.06;102038.50;5116133;28;19962;-72
2021/07/10 05:51:38;;;;;;;;;;;;;;;22.41;60.51;102035.47;5115884;28;19923;-72
2021/07/10 05:54:05;;;;;;;;;;;;;;;22.60;60.00;102036.38;5115581;28;20297;-70
2021/07/10 05:56:33;;;;;;;;;;;;;;;22.77;59.49;102036.75;5116226;28;19927;-72
2021/07/10 05:58:59;;;;;;;;;;;;;;;22.65;59.95;102041.28;5115570;28;19930;-72
2021/07/10 06:01:26;;;;;;;;;;;;;;;22.92;58.04;102047.84;5115312;28;19924;-72
2021/07/10 06:03:52;;;;;;;;;;;;;;;23.04;58.02;102044.13;5115832;28;19923;-72
2021/07/10 06:06:19;;;;;;;;;;;;;;;23.00;58.28;102053.34;5115782;28;19931;-72
2021/07/10 06:08:46;;;;;;;;;;;;;;;23.01;59.12;102042.59;5115646;28;20393;-72
2021/07/10 06:11:12;;;;;;;;;;;;;;;23.12;58.50;102044.31;5115562;28;19928;-72
2021/07/10 06:13:40;;;;;;;;;;;;;;;23.16;58.30;102040.41;5115885;28;19924;-72
2021/07/10 06:16:07;;;;;;;;;;;;;;;23.43;56.66;102044.25;5115611;28;19946;-72
2021/07/10 06:18:33;;;;;;;;;;;;;;;23.28;58.17;102042.97;5115513;28;19931;-72
2021/07/10 06:21:00;;;;;;;;;;;;;;;23.43;56.77;102041.59;5115445;28;19924;-72
2021/07/10 06:23:27;;;;;;;;;;;;;;;23.39;57.24;102046.31;5115313;28;19923;-72
2021/07/10 06:25:53;;;;;;;;;;;;;;;23.53;56.10;102037.16;5115120;28;20290;-72
2021/07/10 06:28:20;;;;;;;;;;;;;;;23.67;55.13;102039.38;5115615;28;19923;-72
2021/07/10 06:30:48;;;;;;;;;;;;;;;23.67;56.09;102039.38;5114974;28;19923;-72
2021/07/10 06:33:15;;;;;;;;;;;;;;;23.80;54.06;102035.63;5115310;27;20253;-72
2021/07/10 06:35:42;;;;;;;;;;;;;;;23.80;53.64;102041.78;5115184;28;19934;-72
2021/07/10 06:38:08;;;;;;;;;;;;;;;23.74;54.38;102037.03;5115152;28;19924;-72
2021/07/10 06:40:35;;;;;;;;;;;;;;;23.24;56.98;102035.25;5114992;28;19931;-72
2021/07/10 06:43:01;;;;;;;;;;;;;;;23.14;57.51;102030.91;5114726;28;19923;-72
2021/07/10 06:45:28;;;;;;;;;;;;;;;23.25;56.79;102028.16;5115264;28;19924;-72
2021/07/10 06:48:01;;;;;;;;;;;;;;;23.28;55.63;102027.03;5114693;28;19923;-72
2021/07/10 06:50:28;;;;;;;;;;;;;;;23.51;54.41;102020.50;5115173;28;20318;-72
2021/07/10 06:52:55;;;;;;;;;;;;;;;23.50;55.32;102013.50;5114861;28;19930;-72
2021/07/10 06:55:21;;;;;;;;;;;;;;;23.45;56.89;102011.28;5114456;28;19930;-72
2021/07/10 06:57:48;;;;;;;;;;;;;;;24.00;55.23;102015.22;5115078;28;19924;-72
2021/07/10 07:00:15;;;;;;;;;;;;;;;24.63;54.14;102004.84;5114492;28;19923;-72
2021/07/10 07:02:42;;;;;;;;;;;;;;;24.59;51.76;102007.97;5114889;28;19927;-72
2021/07/10 07:05:12;;;;;;;;;;;;;;;25.73;49.33;102006.56;5114267;28;19931;-72
2021/07/10 07:07:39;;;;;;;;;;;;;;;25.83;47.94;102001.16;5114866;28;19984;-72
2021/07/10 07:10:07;;;;;;;;;;;;;;;25.39;49.41;101998.44;5114595;28;19923;-72
2021/07/10 07:12:34;;;;;;;;;;;;;;;26.57;46.38;102001.69;5113577;28;20444;-72
2021/07/10 07:15:01;;;;;;;;;;;;;;;27.18;45.64;101999.75;5114103;28;19924;-72
2021/07/10 07:17:27;;;;;;;;;;;;;;;27.96;44.68;102010.03;5114574;28;19924;-72
2021/07/10 07:19:54;;;;;;;;;;;;;;;27.81;45.39;102004.53;5114033;28;19924;-72
2021/07/10 07:22:22;;;;;;;;;;;;;;;28.43;42.83;101999.38;5114261;28;20409;-72
2021/07/10 07:24:48;;;;;;;;;;;;;;;28.53;44.42;102003.75;5114186;28;20444;-72
2021/07/10 07:27:15;;;;;;;;;;;;;;;28.39;42.65;102002.59;5113784;28;19924;-72
2021/07/10 07:29:41;;;;;;;;;;;;;;;28.35;42.52;101994.06;5114261;28;19930;-72
2021/07/10 07:32:09;;;;;;;;;;;;;;;29.39;41.34;102001.97;5113801;28;19924;-72
2021/07/10 07:34:35;;;;;;;;;;;;;;;29.26;41.39;101998.06;5113993;28;19931;-73
2021/07/10 07:37:02;;;;;;;;;;;;;;;30.14;36.51;101991.28;5113968;28;19928;-72
2021/07/10 07:39:30;;;;;;;;;;;;;;;29.80;36.80;101990.94;5113908;28;19924;-71
2021/07/10 07:41:57;;;;;;;;;;;;;;;30.92;34.11;101982.84;5113454;28;20382;-70
2021/07/10 07:44:23;;;;;;;;;;;;;;;31.58;33.74;101988.09;5114388;28;19931;-70
2021/07/10 07:46:50;;;;;;;;;;;;;;;31.52;34.17;101988.84;5113749;28;19924;-70
2021/07/10 07:49:16;;;;;;;;;;;;;;;31.32;35.78;101988.66;5113786;28;19923;-70
2021/07/10 07:51:43;;;;;;;;;;;;;;;30.32;35.83;101982.06;5113364;28;20259;-70
2021/07/10 07:54:10;;;;;;;;;;;;;;;32.57;32.42;101981.72;5113739;28;19946;-70
2021/07/10 07:56:38;;;;;;;;;;;;;;;33.48;30.86;101979.47;5113438;28;19935;-70
2021/07/10 07:59:05;;;;;;;;;;;;;;;33.83;30.55;101987.38;5113339;28;19935;-70
2021/07/10 08:01:32;;;;;;;;;;;;;;;32.56;31.96;101980.91;5113507;28;19929;-70
2021/07/10 08:04:00;;;;;;;;;;;;;;;33.64;29.99;101974.72;5112741;28;20216;-70
2021/07/10 08:06:27;;;;;;;;;;;;;;;33.65;30.73;101979.09;5113683;28;19924;-70
2021/07/10 08:08:54;;;;;;;;;;;;;;;34.04;30.13;101970.94;5113455;28;20014;-70
2021/07/10 08:11:21;;;;;;;;;;;;;;;33.07;30.70;101975.06;5113298;28;20405;-70
2021/07/10 08:13:49;;;;;;;;;;;;;;;31.74;33.39;101971.66;5113544;28;19931;-70
2021/07/10 08:16:16;;;;;;;;;;;;;;;33.45;29.93;101962.84;5113063;28;19973;-70
2021/07/10 08:18:42;;;;;;;;;;;;;;;33.32;31.76;101961.84;5113126;28;19935;-70
2021/07/10 08:21:09;;;;;;;;;;;;;;;35.25;28.30;101958.59;5113281;28;19928;-70
2021/07/10 08:23:36;;;;;;;;;;;;;;;35.23;29.24;101962.56;5113061;28;19930;-70
2021/07/10 08:26:03;;;;;;;;;;;;;;;34.16;29.91;101952.22;5112782;28;20306;-71
2021/07/10 08:28:29;;;;;;;;;;;;;;;35.04;29.24;101954.34;5113361;28;19924;-70
2021/07/10 08:30:57;;;;;;;;;;;;;;;33.64;28.66;101956.66;5112800;28;19930;-70
2021/07/10 08:33:24;;;;;;;;;;;;;;;34.79;27.17;101958.88;5113328;28;19924;-70
2021/07/10 08:35:51;;;;;;;;;;;;;;;34.53;26.79;101957.06;5113356;28;19935;-70
2021/07/10 08:38:17;;;;;;;;;;;;;;;35.79;24.98;101953.56;5113582;28;19924;-70
2021/07/10 08:40:44;;;;;;;;;;;;;;;34.90;26.16;101953.56;5112963;28;20374;-70
2021/07/10 08:43:11;;;;;;;;;;;;;;;35.16;27.41;101961.75;5112869;28;19924;-70
2021/07/10 08:45:38;;;;;;;;;;;;;;;33.69;29.47;101946.06;5112934;28;19923;-70
2021/07/10 08:48:06;;;;;;;;;;;;;;;34.66;26.99;101938.97;5112621;28;19950;-70
2021/07/10 08:50:33;;;;;;;;;;;;;;;35.82;26.89;101949.56;5113161;28;19928;-70
2021/07/10 08:53:01;;;;;;;;;;;;;;;33.94;29.06;101951.66;5112900;28;19924;-70
2021/07/10 08:55:27;;;;;;;;;;;;;;;35.53;25.51;101954.56;5112731;28;19923;-70
2021/07/10 08:57:54;;;;;;;;;;;;;;;35.47;24.79;101948.19;5112554;28;20401;-70
2021/07/10 09:00:22;;;;;;;;;;;;;;;36.27;25.14;101944.69;5112721;28;20381;-71
2021/07/10 09:02:50;;;;;;;;;;;;;;;35.13;27.21;101946.81;5113104;28;19924;-70
2021/07/10 09:05:18;;;;;;;;;;;;;;;34.51;29.00;101948.38;5112568;28;19931;-70
2021/07/10 09:08:04;;;;;;;;;;;;;;;33.94;30.27;101948.94;5112736;28;19924;-70
2021/07/10 09:10:35;;;;;;;;;;;;;;;34.10;28.98;101936.06;5112536;28;19923;-71
2021/07/10 09:13:02;;;;;;;;;;;;;;;36.04;24.75;101929.09;5112426;28;19973;-70
2021/07/10 09:15:28;;;;;;;;;;;;;;;37.21;25.04;101927.97;5112982;28;19924;-70
2021/07/10 09:17:55;;;;;;;;;;;;;;;35.31;26.24;101932.53;5112667;28;19924;-71
2021/07/10 09:20:24;;;;;;;;;;;;;;;35.09;26.39;101932.06;5112943;28;19924;-70
2021/07/10 09:22:51;;;;;;;;;;;;;;;35.03;26.01;101927.50;5112460;28;19930;-70
2021/07/10 09:25:22;;;;;;;;;;;;;;;36.03;25.49;101927.47;5112852;28;19924;-70
2021/07/10 09:27:49;;;;;;;;;;;;;;;36.84;24.14;101918.09;5112755;28;19923;-71
2021/07/10 09:30:16;;;;;;;;;;;;;;;36.99;23.67;101920.34;5112626;28;20011;-70
2021/07/10 09:32:43;;;;;;;;;;;;;;;37.76;23.41;101908.63;5112702;28;20298;-72
2021/07/10 09:35:10;;;;;;;;;;;;;;;38.20;21.55;101914.44;5113046;28;19924;-71
2021/07/10 09:37:38;;;;;;;;;;;;;;;37.84;22.14;101908.28;5116607;28;19988;-71
2021/07/10 09:40:06;;;;;;;;;;;;;;;37.77;24.28;101913.00;5116357;28;20255;-71
2021/07/10 09:42:34;;;;;;;;;;;;;;;38.02;22.76;101915.44;5116431;28;20270;-71
2021/07/10 09:45:01;;;;;;;;;;;;;;;36.37;22.99;101908.94;5115933;28;19924;-71
2021/07/10 09:47:28;;;;;;;;;;;;;;;35.98;24.27;101906.47;5116130;28;19928;-71
2021/07/10 09:49:55;;;;;;;;;;;;;;;35.72;24.42;101918.41;5116147;28;19924;-71
2021/07/10 09:52:23;;;;;;;;;;;;;;;34.43;24.74;101915.16;5116138;28;19923;-71
2021/07/10 09:54:53;;;;;;;;;;;;;;;33.40;27.68;101912.25;5115871;28;19993;-72
2021/07/10 09:57:20;;;;;;;;;;;;;;;35.11;24.95;101908.34;5115878;28;19930;-71
2021/07/10 09:59:48;;;;;;;;;;;;;;;35.59;25.37;101912.31;5115805;28;19924;-71
2021/07/10 10:02:16;;;;;;;;;;;;;;;35.42;24.92;101917.44;5115333;28;20417;-71
2021/07/10 10:04:43;;;;;;;;;;;;;;;35.50;25.44;101903.63;5115638;28;19946;-71
2021/07/10 10:07:11;;;;;;;;;;;;;;;35.98;23.75;101901.03;5115717;28;19924;-71
2021/07/10 10:09:38;;;;;;;;;;;;;;;36.79;23.36;101906.28;5115754;28;19977;-71
2021/07/10 10:12:08;;;;;;;;;;;;;;;36.49;22.96;101907.09;5115325;28;19928;-71
2021/07/10 10:14:39;;;;;;;;;;;;;;;37.14;23.54;101908.28;5115664;28;19973;-71
2021/07/10 10:17:06;;;;;;;;;;;;;;;36.62;22.41;101917.78;5115579;28;19930;-71
2021/07/10 10:19:34;;;;;;;;;;;;;;;35.98;23.45;101914.59;5115821;28;19923;-71
2021/07/10 10:22:03;;;;;;;;;;;;;;;35.16;26.04;101918.50;5115108;28;19930;-71
2021/07/10 10:24:31;;;;;;;;;;;;;;;35.16;28.32;101918.50;5115710;28;19924;-72
2021/07/10 10:26:58;;;;;;;;;;;;;;;36.56;27.94;101918.72;5115149;28;19924;-71
2021/07/10 10:29:27;;;;;;;;;;;;;;;35.47;28.04;101917.59;5115575;28;19928;-71
2021/07/10 10:31:54;;;;;;;;;;;;;;;34.50;25.91;101914.28;5114996;28;19931;-71
2021/07/10 10:34:21;;;;;;;;;;;;;;;34.10;28.83;101907.19;5115446;28;19931;-71
2021/07/10 10:36:49;;;;;;;;;;;;;;;33.50;32.18;101904.56;5115510;28;19955;-71
2021/07/10 10:39:17;;;;;;;;;;;;;;;36.48;28.96;101900.03;5114731;28;20397;-71
2021/07/10 10:41:44;;;;;;;;;;;;;;;37.59;28.50;101897.69;5115043;28;19924;-72
2021/07/10 10:44:12;;;;;;;;;;;;;;;38.08;23.85;101898.22;5115032;28;19923;-72
2021/07/10 10:46:47;;;;;;;;;;;;;;;37.36;26.59;101897.69;5113622;28;19924;-72
2021/07/10 10:49:33;;;;;;;;;;;;;;;36.98;27.02;101898.91;5114962;28;19928;-71
2021/07/10 10:52:15;;;;;;;;;;;;;;;36.88;25.96;101895.94;5114849;28;19930;-72
2021/07/10 10:54:45;;;;;;;;;;;;;;;37.71;25.48;101894.94;5114895;28;19932;-71
2021/07/10 10:57:12;;;;;;;;;;;;;;;36.38;28.17;101884.34;5114912;28;19924;-72
2021/07/10 10:59:40;;;;;;;;;;;;;;;36.27;28.74;101879.66;5114631;28;19930;-72
2021/07/10 11:02:21;;;;;;;;;;;;;;;36.24;27.60;101880.13;5114402;28;19935;-72
2021/07/10 11:05:06;;;;;;;;;;;;;;;37.27;26.63;101872.75;5070109;27;19924;-72
2021/07/10 11:07:35;;;;;;;;;;;;;;;36.04;27.08;101868.69;5114611;28;20297;-72
2021/07/10 11:10:12;;;;;;;;;;;;;;;36.83;26.38;101866.81;5114919;28;20323;-71
2021/07/10 11:12:58;;;;;;;;;;;;;;;38.64;23.64;101865.84;5114394;28;19930;-72
2021/07/10 11:15:40;;;;;;;;;;;;;;;36.34;26.65;101874.19;5114612;28;19924;-72
2021/07/10 11:18:08;;;;;;;;;;;;;;;36.83;27.06;101874.94;5114169;28;20458;-71
2021/07/10 11:20:44;;;;;;;;;;;;;;;36.41;25.25;101864.06;5114345;27;19923;-71
2021/07/10 11:23:25;;;;;;;;;;;;;;;35.01;26.93;101859.28;5114297;28;19923;-71
2021/07/10 11:26:02;;;;;;;;;;;;;;;37.72;24.47;101855.88;5114495;28;19924;-71
2021/07/10 11:28:33;;;;;;;;;;;;;;;37.49;26.01;101854.00;5114547;28;19974;-71
2021/07/10 11:31:01;;;;;;;;;;;;;;;36.84;26.24;101846.75;5114114;28;19924;-71
2021/07/10 11:33:46;;;;;;;;;;;;;;;38.22;22.67;101838.13;5114334;28;19928;-71
2021/07/10 11:36:31;;;;;;;;;;;;;;;37.44;23.02;101838.44;5113720;28;19924;-71
2021/07/10 11:38:59;;;;;;;;;;;;;;;37.38;23.17;101831.25;5113752;28;20373;-71
2021/07/10 11:41:29;;;;;;;;;;;;;;;36.61;25.93;101825.88;5113860;28;19932;-71
2021/07/10 11:44:11;;;;;;;;;;;;;;;36.38;25.97;101823.91;5113807;28;19972;-72
2021/07/10 11:46:52;;;;;;;;;;;;;;;37.87;24.46;101830.94;5114197;28;19927;-71
2021/07/10 11:49:34;;;;;;;;;;;;;;;37.36;23.93;101824.41;5113570;28;19924;-71
2021/07/10 11:52:00;;;;;;;;;;;;;;;36.73;25.68;101823.16;5113317;28;19930;-72
2021/07/10 11:54:28;;;;;;;;;;;;;;;35.86;25.71;101813.50;5113635;28;19928;-70
2021/07/10 11:56:55;;;;;;;;;;;;;;;36.71;25.03;101811.72;5113405;28;19939;-71
2021/07/10 11:59:23;;;;;;;;;;;;;;;37.33;23.63;101814.84;5113477;28;19931;-71
2021/07/10 12:01:50;;;;;;;;;;;;;;;36.04;24.76;101822.66;5113460;28;19924;-71
2021/07/10 12:04:16;;;;;;;;;;;;;;;35.16;26.07;101813.84;5113511;28;19931;-71
2021/07/10 12:06:43;;;;;;;;;;;;;;;35.87;25.72;101811.66;5113660;28;19959;-71
2021/07/10 12:09:09;;;;;;;;;;;;;;;36.02;25.97;101801.25;5113087;28;19931;-71
2021/07/10 12:11:38;;;;;;;;;;;;;;;36.24;25.54;101804.28;5113729;28;19931;-71
2021/07/10 12:14:05;;;;;;;;;;;;;;;35.14;26.44;101815.13;5113265;28;19924;-71
2021/07/10 12:16:31;;;;;;;;;;;;;;;36.08;25.09;101805.75;5113192;28;20378;-71
2021/07/10 12:18:58;;;;;;;;;;;;;;;36.33;24.84;101804.81;5113064;28;19935;-71
2021/07/10 12:21:25;;;;;;;;;;;;;;;35.38;24.32;101805.31;5113247;28;19923;-71
2021/07/10 12:23:55;;;;;;;;;;;;;;;36.35;24.27;101798.09;5113413;28;19924;-71
2021/07/10 12:26:22;;;;;;;;;;;;;;;36.89;24.12;101799.97;5113452;28;19955;-71
2021/07/10 12:28:53;;;;;;;;;;;;;;;37.99;24.47;101801.03;5113446;28;19931;-72
2021/07/10 12:31:21;;;;;;;;;;;;;;;38.89;22.91;101796.63;5113388;28;19969;-71
2021/07/10 12:33:53;;;;;;;;;;;;;;;39.47;20.58;101802.66;5112790;28;20286;-72
2021/07/10 12:36:25;;;;;;;;;;;;;;;38.10;21.52;101790.13;5113336;28;19924;-72
2021/07/10 12:39:00;;;;;;;;;;;;;;;36.12;23.76;101781.75;5113031;28;19923;-71